createdAt,value
2019-02-18T00:01:54.420Z,8.57
2019-02-18T00:04:22.838Z,8.00
2019-02-18T00:06:53.974Z,8.97
2019-02-18T00:09:22.639Z,7.77
2019-02-18T00:11:53.814Z,9.17
2019-02-18T00:14:29.577Z,9.00
2019-02-18T00:17:02.254Z,8.10
2019-02-18T00:19:34.069Z,8.40
2019-02-18T00:22:08.470Z,8.57
2019-02-18T00:24:38.837Z,8.77
2019-02-18T00:27:10.201Z,8.80
2019-02-18T00:29:39.121Z,7.90
2019-02-18T00:32:10.476Z,8.63
2019-02-18T00:34:44.532Z,8.97
2019-02-18T00:37:24.196Z,8.80
2019-02-18T00:39:45.932Z,9.07
2019-02-18T00:42:19.986Z,8.60
2019-02-18T00:44:48.432Z,8.20
2019-02-18T00:47:22.530Z,8.00
2019-02-18T00:49:55.133Z,9.13
2019-02-18T00:52:23.548Z,8.20
2019-02-18T00:54:51.956Z,7.63
2019-02-18T00:57:23.125Z,8.43
2019-02-18T01:00:00.297Z,8.00
2019-02-18T01:02:31.470Z,8.07
2019-02-18T01:04:59.957Z,8.73
2019-02-18T01:07:36.073Z,8.80
2019-02-18T01:10:09.094Z,8.50
2019-02-18T01:12:40.325Z,8.30
2019-02-18T01:15:16.041Z,8.53
2019-02-18T01:17:44.466Z,7.80
2019-02-18T01:20:21.815Z,8.70
2019-02-18T01:22:52.761Z,8.63
2019-02-18T01:25:26.870Z,8.70
2019-02-18T01:27:58.245Z,7.63
2019-02-18T01:30:31.279Z,8.83
2019-02-18T01:33:02.753Z,7.47
2019-02-18T01:35:31.173Z,7.70
2019-02-18T01:37:59.599Z,7.43
2019-02-18T01:40:33.266Z,8.33
2019-02-18T01:43:02.048Z,8.23
2019-02-18T01:45:30.704Z,8.33
2019-02-18T01:48:00.718Z,8.00
2019-02-18T01:50:30.801Z,7.53
2019-02-18T01:53:02.758Z,7.67
2019-02-18T01:55:31.174Z,8.07
2019-02-18T01:57:59.599Z,7.47
2019-02-18T02:00:39.894Z,7.63
2019-02-18T02:03:13.637Z,6.90
2019-02-18T02:05:50.282Z,7.43
2019-02-18T02:08:23.337Z,7.50
2019-02-18T02:10:54.539Z,7.97
2019-02-18T02:13:28.321Z,6.63
2019-02-18T02:16:11.432Z,7.00
2019-02-18T02:18:40.003Z,8.17
2019-02-18T02:21:17.408Z,7.23
2019-02-18T02:23:46.069Z,7.80
2019-02-18T02:26:14.734Z,8.17
2019-02-18T02:28:51.353Z,7.67
2019-02-18T02:31:19.777Z,7.00
2019-02-18T02:33:51.259Z,7.30
2019-02-18T02:36:22.594Z,6.90
2019-02-18T02:38:51.013Z,8.00
2019-02-18T02:41:21.065Z,7.27
2019-02-18T02:43:49.806Z,7.63
2019-02-18T02:46:19.493Z,7.17
2019-02-18T02:48:47.918Z,7.80
2019-02-18T02:51:21.986Z,7.20
2019-02-18T02:53:56.450Z,7.67
2019-02-18T02:56:27.617Z,6.57
2019-02-18T02:58:59.215Z,7.30
2019-02-18T03:01:27.635Z,7.23
2019-02-18T03:03:56.065Z,8.20
2019-02-18T03:06:29.950Z,6.97
2019-02-18T03:08:58.950Z,7.00
2019-02-18T03:11:30.422Z,7.23
2019-02-18T03:13:58.854Z,6.73
2019-02-18T03:16:31.847Z,6.83
2019-02-18T03:19:01.914Z,6.90
2019-02-18T03:21:30.339Z,6.83
2019-02-18T03:23:58.833Z,6.27
2019-02-18T03:26:29.900Z,7.33
2019-02-18T03:29:29.893Z,6.93
2019-02-18T03:31:58.414Z,7.13
2019-02-18T03:34:30.333Z,7.00
2019-02-18T03:37:00.449Z,6.20
2019-02-18T03:39:34.550Z,7.23
2019-02-18T03:42:00.717Z,6.17
2019-02-18T03:44:32.041Z,7.73
2019-02-18T03:47:00.468Z,7.00
2019-02-18T03:49:31.814Z,7.03
2019-02-18T03:52:00.230Z,7.77
2019-02-18T03:54:33.254Z,9.03
2019-02-18T03:57:06.280Z,8.00
2019-02-18T03:59:38.661Z,8.77
2019-02-18T04:02:08.741Z,7.60
2019-02-18T04:04:37.190Z,7.90
2019-02-18T04:07:05.690Z,8.20
2019-02-18T04:09:34.099Z,7.77
2019-02-18T04:12:05.485Z,7.90
2019-02-18T04:14:41.562Z,7.60
2019-02-18T04:17:14.397Z,7.43
2019-02-18T04:19:45.534Z,7.20
2019-02-18T04:22:15.237Z,7.23
2019-02-18T04:24:43.690Z,7.83
2019-02-18T04:27:16.465Z,7.43
2019-02-18T04:29:48.094Z,7.37
2019-02-18T04:32:19.581Z,7.40
2019-02-18T04:34:53.403Z,7.87
2019-02-18T04:37:23.541Z,7.47
2019-02-18T04:39:54.758Z,7.53
2019-02-18T04:42:24.612Z,8.07
2019-02-18T04:44:57.370Z,7.57
2019-02-18T04:47:30.248Z,7.67
2019-02-18T04:49:58.905Z,8.00
2019-02-18T04:52:30.314Z,7.30
2019-02-18T04:55:03.043Z,8.00
2019-02-18T04:57:31.721Z,7.33
2019-02-18T05:00:03.019Z,8.37
2019-02-18T05:02:45.884Z,8.90
2019-02-18T05:05:36.975Z,8.27
2019-02-18T05:08:05.429Z,8.37
2019-02-18T05:10:36.574Z,9.37
2019-02-18T05:13:10.691Z,8.77
2019-02-18T05:15:40.311Z,7.40
2019-02-18T05:18:10.745Z,9.90
2019-02-18T05:20:40.713Z,9.90
2019-02-18T05:23:09.109Z,13.00
2019-02-18T05:25:40.218Z,11.00
2019-02-18T05:28:08.640Z,11.43
2019-02-18T05:30:45.501Z,9.97
2019-02-18T05:33:16.958Z,10.60
2019-02-18T05:35:50.969Z,11.27
2019-02-18T05:38:22.541Z,10.17
2019-02-18T05:40:50.966Z,10.70
2019-02-18T05:43:22.341Z,9.97
2019-02-18T05:45:50.759Z,9.43
2019-02-18T05:48:20.174Z,9.10
2019-02-18T05:50:58.914Z,9.27
2019-02-18T05:53:24.698Z,9.53
2019-02-18T05:56:01.782Z,9.97
2019-02-18T05:58:33.183Z,9.17
2019-02-18T06:01:07.458Z,9.63
2019-02-18T06:03:38.797Z,8.83
2019-02-18T06:06:09.923Z,9.20
2019-02-18T06:08:40.058Z,8.53
2019-02-18T06:11:11.558Z,9.37
2019-02-18T06:13:43.367Z,8.57
2019-02-18T06:16:19.548Z,9.50
2019-02-18T06:18:50.025Z,8.53
2019-02-18T06:21:20.718Z,8.47
2019-02-18T06:23:52.219Z,9.30
2019-02-18T06:26:34.423Z,8.53
2019-02-18T06:29:14.885Z,8.47
2019-02-18T06:31:42.012Z,8.93
2019-02-18T06:34:18.097Z,9.17
2019-02-18T06:36:57.464Z,9.57
2019-02-18T06:39:40.195Z,8.90
2019-02-18T06:42:01.517Z,8.40
2019-02-18T06:44:34.975Z,8.03
2019-02-18T06:47:05.378Z,9.27
2019-02-18T06:49:34.280Z,8.93
2019-02-18T06:52:07.527Z,9.23
2019-02-18T06:54:35.375Z,8.67
2019-02-18T06:57:22.010Z,9.47
2019-02-18T06:59:55.284Z,8.07
2019-02-18T07:02:29.696Z,9.33
2019-02-18T07:05:52.894Z,8.80
2019-02-18T07:07:43.775Z,9.77
2019-02-18T07:10:31.430Z,10.07
2019-02-18T07:13:11.939Z,8.27
2019-02-18T07:15:55.536Z,8.10
2019-02-18T07:18:28.650Z,7.97
2019-02-18T07:21:01.765Z,8.00
2019-02-18T07:23:34.280Z,7.67
2019-02-18T07:26:13.697Z,8.33
2019-02-18T07:28:47.217Z,8.90
2019-02-18T07:31:19.027Z,9.83
2019-02-18T07:33:54.577Z,8.57
2019-02-18T07:36:24.892Z,9.17
2019-02-18T07:39:07.681Z,8.73
2019-02-18T07:41:43.765Z,9.70
2019-02-18T07:44:24.178Z,7.47
2019-02-18T07:46:55.130Z,8.67
2019-02-18T07:49:32.338Z,8.43
2019-02-18T07:52:14.738Z,7.10
2019-02-18T07:54:46.339Z,7.50
2019-02-18T07:57:15.218Z,8.03
2019-02-18T07:59:54.977Z,7.77
2019-02-18T08:02:34.180Z,7.13
2019-02-18T08:05:14.100Z,8.03
2019-02-18T08:07:51.631Z,9.23
2019-02-18T08:10:21.940Z,7.50
2019-02-18T08:13:14.232Z,8.37
2019-02-18T08:15:40.632Z,8.90
2019-02-18T08:18:21.947Z,8.20
2019-02-18T08:20:59.700Z,7.97
2019-02-18T08:23:35.603Z,8.27
2019-02-18T08:26:09.783Z,8.53
2019-02-18T08:28:39.898Z,10.33
2019-02-18T08:31:11.377Z,9.17
2019-02-18T08:33:42.425Z,9.97
2019-02-18T08:36:16.377Z,9.80
2019-02-18T08:38:48.484Z,9.00
2019-02-18T08:41:16.966Z,9.77
2019-02-18T08:43:48.111Z,9.53
2019-02-18T08:46:16.769Z,10.77
2019-02-18T08:48:46.856Z,7.87
2019-02-18T08:51:15.278Z,8.87
2019-02-18T08:53:48.248Z,8.80
2019-02-18T08:56:21.706Z,9.13
2019-02-18T08:58:50.152Z,9.67
2019-02-18T09:01:23.026Z,9.57
2019-02-18T09:03:51.938Z,10.03
2019-02-18T09:06:28.971Z,9.43
2019-02-18T09:08:57.421Z,11.23
2019-02-18T09:11:25.833Z,10.03
2019-02-18T09:13:54.302Z,8.70
2019-02-18T09:16:22.821Z,9.77
2019-02-18T09:18:51.533Z,8.40
2019-02-18T09:21:26.993Z,7.50
2019-02-18T09:24:00.093Z,9.90
2019-02-18T09:26:30.154Z,9.57
2019-02-18T09:29:00.228Z,11.77
2019-02-18T09:31:29.009Z,10.20
2019-02-18T09:33:58.981Z,10.87
2019-02-18T09:36:30.340Z,8.47
2019-02-18T09:39:00.609Z,7.77
2019-02-18T09:41:43.997Z,6.87
2019-02-18T09:44:12.422Z,8.73
2019-02-18T09:46:49.457Z,9.77
2019-02-18T09:49:31.192Z,10.23
2019-02-18T09:51:53.509Z,11.90
2019-02-18T09:54:24.612Z,9.43
2019-02-18T09:56:54.662Z,12.00
2019-02-18T09:59:23.106Z,10.37
2019-02-18T10:01:56.756Z,12.20
2019-02-18T10:04:26.945Z,10.13
2019-02-18T10:06:55.358Z,11.10
2019-02-18T10:09:26.484Z,9.60
2019-02-18T10:12:00.612Z,9.60
2019-02-18T10:14:29.173Z,10.18
2019-02-18T10:16:59.510Z,10.20
2019-02-18T10:19:27.941Z,8.50
2019-02-18T10:21:59.167Z,7.83
2019-02-18T10:24:30.382Z,7.93
2019-02-18T10:27:00.441Z,9.57
2019-02-18T10:29:29.184Z,9.30
2019-02-18T10:31:59.243Z,9.23
2019-02-18T10:34:30.545Z,8.88
2019-02-18T10:37:01.821Z,8.33
2019-02-18T10:39:30.602Z,8.23
2019-02-18T10:42:03.646Z,8.43
2019-02-18T10:44:32.098Z,7.65
2019-02-18T10:47:00.521Z,8.00
2019-02-18T10:49:28.929Z,6.77
2019-02-18T10:51:58.352Z,6.72
2019-02-18T10:54:29.413Z,7.90
2019-02-18T10:57:00.598Z,6.57
2019-02-18T10:59:29.017Z,6.57
2019-02-18T11:02:06.478Z,6.13
2019-02-18T11:04:37.674Z,6.30
2019-02-18T11:07:11.949Z,6.30
2019-02-18T11:09:43.394Z,6.77
2019-02-18T11:12:12.234Z,6.27
2019-02-18T11:14:43.646Z,7.10
2019-02-18T11:17:17.762Z,6.80
2019-02-18T11:19:46.234Z,6.40
2019-02-18T11:22:17.328Z,6.77
2019-02-18T11:24:47.534Z,7.27
2019-02-18T11:27:20.130Z,7.73
2019-02-18T11:30:02.414Z,6.67
2019-02-18T11:32:32.677Z,7.03
2019-02-18T11:35:01.081Z,7.10
2019-02-18T11:37:32.197Z,7.17
2019-02-18T11:40:04.877Z,6.43
2019-02-18T11:42:37.465Z,6.53
2019-02-18T11:45:12.186Z,6.87
2019-02-18T11:47:40.685Z,6.87
2019-02-18T11:50:11.041Z,6.70
2019-02-18T11:52:40.500Z,6.43
2019-02-18T11:55:10.942Z,6.87
2019-02-18T11:57:45.081Z,6.80
2019-02-18T12:00:18.173Z,6.57
2019-02-18T12:03:02.775Z,6.30
2019-02-18T12:05:25.081Z,6.80
2019-02-18T12:07:56.224Z,6.60
2019-02-18T12:10:27.829Z,7.50
2019-02-18T12:12:57.885Z,7.13
2019-02-18T12:15:26.313Z,6.57
2019-02-18T12:17:54.834Z,6.57
2019-02-18T12:20:26.137Z,6.73
2019-02-18T12:22:54.573Z,7.23
2019-02-18T12:25:27.913Z,7.63
2019-02-18T12:27:58.801Z,6.73
2019-02-18T12:30:32.470Z,7.17
2019-02-18T12:33:01.257Z,6.70
2019-02-18T12:35:31.532Z,7.27
2019-02-18T12:38:17.388Z,7.00
2019-02-18T12:40:37.537Z,6.90
2019-02-18T12:43:20.872Z,6.90
2019-02-18T12:45:43.641Z,7.20
2019-02-18T12:48:12.150Z,7.43
2019-02-18T12:50:40.643Z,6.50
2019-02-18T12:53:19.386Z,7.97
2019-02-18T12:55:49.474Z,7.03
2019-02-18T12:58:23.621Z,7.07
2019-02-18T13:01:03.288Z,6.30
2019-02-18T13:03:34.433Z,6.00
2019-02-18T13:06:02.860Z,6.30
2019-02-18T13:08:40.441Z,5.77
2019-02-18T13:11:08.926Z,6.13
2019-02-18T13:13:46.337Z,6.20
2019-02-18T13:16:16.661Z,6.30
2019-02-18T13:18:45.089Z,5.80
2019-02-18T13:21:17.903Z,6.10
2019-02-18T13:23:49.210Z,6.40
2019-02-18T13:26:20.264Z,6.27
2019-02-18T13:29:03.713Z,6.03
2019-02-18T13:31:36.734Z,6.10
2019-02-18T13:34:05.165Z,6.43
2019-02-18T13:36:36.262Z,5.53
2019-02-18T13:39:05.620Z,6.70
2019-02-18T13:41:34.413Z,6.60
2019-02-18T13:44:06.020Z,5.60
2019-02-18T13:46:35.226Z,5.70
2019-02-18T13:49:06.607Z,6.00
2019-02-18T13:51:39.270Z,6.07
2019-02-18T13:54:16.967Z,6.00
2019-02-18T13:56:45.799Z,6.00
2019-02-18T13:59:20.189Z,6.07
2019-02-18T14:01:48.865Z,6.57
2019-02-18T14:04:19.929Z,6.50
2019-02-18T14:06:51.225Z,6.07
2019-02-18T14:09:26.878Z,6.10
2019-02-18T14:11:57.946Z,6.43
2019-02-18T14:14:26.431Z,6.37
2019-02-18T14:17:00.570Z,6.70
2019-02-18T14:19:32.229Z,6.37
2019-02-18T14:22:05.076Z,5.50
2019-02-18T14:24:40.919Z,5.87
2019-02-18T14:27:14.697Z,6.60
2019-02-18T14:29:48.421Z,6.83
2019-02-18T14:32:25.229Z,5.73
2019-02-18T14:34:56.644Z,5.83
2019-02-18T14:37:31.205Z,5.97
2019-02-18T14:39:59.626Z,5.07
2019-02-18T14:42:28.983Z,9.30
2019-02-18T14:45:00.318Z,9.70
2019-02-18T14:47:33.081Z,7.17
2019-02-18T14:50:08.777Z,7.20
2019-02-18T14:52:37.323Z,6.40
2019-02-18T14:55:12.312Z,6.17
2019-02-18T14:57:41.733Z,5.00
2019-02-18T15:00:19.705Z,4.27
2019-02-18T15:02:54.941Z,8.17
2019-02-18T15:05:32.570Z,5.10
2019-02-18T15:08:03.394Z,4.53
2019-02-18T15:10:34.718Z,5.07
2019-02-18T15:13:08.865Z,4.73
2019-02-18T15:15:37.281Z,5.40
2019-02-18T15:18:08.917Z,5.30
2019-02-18T15:20:37.333Z,4.33
2019-02-18T15:23:05.835Z,4.63
2019-02-18T15:25:39.727Z,4.20
2019-02-18T15:28:15.400Z,4.70
2019-02-18T15:30:49.694Z,4.83
2019-02-18T15:33:19.687Z,4.33
2019-02-18T15:35:56.732Z,3.93
2019-02-18T15:38:25.171Z,4.40
2019-02-18T15:40:53.825Z,5.90
2019-02-18T15:43:32.979Z,7.93
2019-02-18T15:46:11.399Z,5.60
2019-02-18T15:48:43.857Z,5.43
2019-02-18T15:51:18.445Z,6.47
2019-02-18T15:53:47.741Z,5.77
2019-02-18T15:56:19.023Z,7.63
2019-02-18T15:58:49.131Z,8.00
2019-02-18T16:01:20.071Z,7.40
2019-02-18T16:03:54.235Z,8.13
2019-02-18T16:06:33.769Z,6.20
2019-02-18T16:09:09.605Z,6.00
2019-02-18T16:11:39.716Z,5.57
2019-02-18T16:14:09.830Z,8.20
2019-02-18T16:16:39.581Z,6.40
2019-02-18T16:19:09.730Z,8.83
2019-02-18T16:21:38.513Z,9.27
2019-02-18T16:24:19.659Z,7.00
2019-02-18T16:26:44.127Z,8.00
2019-02-18T16:29:17.113Z,19.20
2019-02-18T16:31:45.575Z,13.80
2019-02-18T16:34:19.752Z,10.50
2019-02-18T16:36:51.134Z,6.30
2019-02-18T16:39:22.426Z,7.93
2019-02-18T16:41:50.837Z,8.20
2019-02-18T16:44:19.270Z,6.87
2019-02-18T16:46:47.757Z,6.53
2019-02-18T16:49:16.829Z,6.57
2019-02-18T16:51:45.649Z,7.50
2019-02-18T16:54:21.604Z,10.13
2019-02-18T16:56:53.053Z,11.03
2019-02-18T16:59:33.697Z,13.33
2019-02-18T17:02:07.820Z,12.07
2019-02-18T17:04:37.892Z,13.00
2019-02-18T17:07:11.134Z,12.77
2019-02-18T17:09:46.538Z,20.47
2019-02-18T17:12:17.801Z,14.67
2019-02-18T17:14:48.998Z,11.27
2019-02-18T17:17:23.117Z,9.53
2019-02-18T17:19:51.540Z,8.30
2019-02-18T17:22:20.210Z,7.00
2019-02-18T17:24:48.649Z,7.47
2019-02-18T17:27:17.208Z,8.20
2019-02-18T17:29:47.394Z,8.10
2019-02-18T17:32:21.541Z,8.13
2019-02-18T17:34:52.683Z,8.07
2019-02-18T17:37:24.392Z,8.27
2019-02-18T17:39:57.501Z,8.70
2019-02-18T17:42:31.655Z,11.40
2019-02-18T17:45:03.507Z,17.63
2019-02-18T17:47:33.688Z,19.33
2019-02-18T17:50:02.349Z,15.83
2019-02-18T17:52:36.963Z,13.27
2019-02-18T17:55:07.996Z,10.20
2019-02-18T17:57:39.438Z,11.07
2019-02-18T18:00:15.443Z,13.47
2019-02-18T18:02:44.022Z,9.80
2019-02-18T18:05:12.994Z,9.63
2019-02-18T18:07:47.416Z,10.20
2019-02-18T18:10:16.221Z,8.40
2019-02-18T18:12:44.641Z,8.63
2019-02-18T18:15:16.212Z,9.07
2019-02-18T18:17:45.058Z,8.33
2019-02-18T18:20:27.926Z,8.57
2019-02-18T18:22:59.783Z,9.57
2019-02-18T18:25:28.193Z,9.53
2019-02-18T18:27:58.146Z,9.73
2019-02-18T18:30:33.585Z,8.90
2019-02-18T18:33:05.911Z,11.87
2019-02-18T18:35:34.943Z,13.13
2019-02-18T18:38:05.057Z,11.03
2019-02-18T18:40:33.497Z,13.03
2019-02-18T18:43:03.567Z,18.67
2019-02-18T18:45:32.084Z,22.40
2019-02-18T18:48:06.331Z,21.50
2019-02-18T18:50:37.831Z,24.10
2019-02-18T18:53:06.301Z,25.80
2019-02-18T18:55:36.349Z,26.60
2019-02-18T18:58:08.249Z,19.77
2019-02-18T19:00:36.680Z,15.30
2019-02-18T19:03:07.061Z,14.57
2019-02-18T19:05:38.232Z,17.43
2019-02-18T19:08:13.966Z,14.13
2019-02-18T19:10:48.082Z,12.43
2019-02-18T19:13:16.574Z,12.60
2019-02-18T19:15:49.612Z,11.60
2019-02-18T19:18:16.777Z,11.73
2019-02-18T19:20:53.705Z,13.10
2019-02-18T19:23:27.570Z,12.50
2019-02-18T19:25:56.261Z,12.53
2019-02-18T19:28:24.689Z,12.10
2019-02-18T19:30:54.690Z,11.10
2019-02-18T19:33:24.831Z,11.57
2019-02-18T19:35:54.893Z,11.73
2019-02-18T19:38:24.359Z,10.87
2019-02-18T19:40:56.233Z,10.00
2019-02-18T19:43:34.273Z,9.40
2019-02-18T19:46:25.641Z,10.97
2019-02-18T19:48:47.596Z,10.20
2019-02-18T19:51:24.041Z,10.57
2019-02-18T19:54:00.363Z,11.07
2019-02-18T19:56:42.272Z,10.57
2019-02-18T20:02:13.896Z,9.17
2019-02-18T20:04:51.433Z,10.40
2019-02-18T20:07:19.840Z,9.50
2019-02-18T20:09:48.345Z,8.97
2019-02-18T20:12:16.824Z,8.67
2019-02-18T20:14:47.966Z,8.23
2019-02-18T20:17:17.401Z,8.93
2019-02-18T20:19:46.084Z,9.67
2019-02-18T20:22:20.289Z,9.33
2019-02-18T20:24:51.641Z,10.53
2019-02-18T20:27:32.918Z,10.00
2019-02-18T20:30:03.342Z,9.97
2019-02-18T20:32:37.801Z,9.53
2019-02-18T20:35:14.144Z,10.13
2019-02-18T20:37:44.212Z,10.33
2019-02-18T20:40:13.595Z,9.63
2019-02-18T20:42:45.202Z,9.37
2019-02-18T20:45:17.325Z,9.10
2019-02-18T20:47:45.982Z,10.07
2019-02-18T20:50:18.122Z,9.30
2019-02-18T20:52:49.205Z,9.60
2019-02-18T20:55:19.541Z,10.00
2019-02-18T20:57:47.950Z,9.83
2019-02-18T21:00:22.649Z,10.87
2019-02-18T21:02:51.061Z,11.10
2019-02-18T21:05:25.710Z,11.70
2019-02-18T21:07:58.752Z,10.00
2019-02-18T21:10:29.590Z,9.40
2019-02-18T21:12:58.258Z,9.37
2019-02-18T21:15:32.625Z,9.53
2019-02-18T21:18:05.371Z,9.57
2019-02-18T21:20:38.304Z,10.57
2019-02-18T21:23:09.662Z,10.27
2019-02-18T21:25:38.159Z,9.50
2019-02-18T21:28:06.697Z,9.47
2019-02-18T21:30:36.821Z,10.00
2019-02-18T21:33:10.330Z,11.00
2019-02-18T21:35:38.766Z,9.93
2019-02-18T21:38:07.577Z,10.23
2019-02-18T21:40:36.008Z,10.97
2019-02-18T21:43:10.385Z,10.50
2019-02-18T21:45:44.524Z,10.00
2019-02-18T21:48:17.501Z,9.80
2019-02-18T21:50:46.008Z,10.20
2019-02-18T21:53:19.682Z,10.70
2019-02-18T21:55:52.144Z,10.17
2019-02-18T21:58:25.241Z,10.10
2019-02-18T22:00:58.988Z,9.57
2019-02-18T22:03:27.422Z,9.50
2019-02-18T22:05:55.906Z,11.30
2019-02-18T22:08:31.615Z,9.10
2019-02-18T22:11:04.901Z,9.93
2019-02-18T22:13:33.324Z,9.13
2019-02-18T22:16:04.669Z,10.40
2019-02-18T22:18:43.842Z,10.50
2019-02-18T22:21:18.064Z,10.30
2019-02-18T22:23:46.741Z,10.47
2019-02-18T22:26:23.703Z,10.20
2019-02-18T22:28:55.273Z,10.20
2019-02-18T22:31:26.888Z,8.83
2019-02-18T22:33:58.706Z,8.73
2019-02-18T22:36:30.293Z,8.60
2019-02-18T22:38:58.714Z,9.60
2019-02-18T22:41:27.129Z,8.73
2019-02-18T22:44:10.648Z,8.00
2019-02-18T22:46:50.418Z,7.93
2019-02-18T22:49:21.483Z,7.83
2019-02-18T22:51:52.972Z,9.70
2019-02-18T22:54:32.074Z,8.83
2019-02-18T22:57:00.497Z,11.70
2019-02-18T22:59:32.389Z,10.73
2019-02-18T23:02:06.526Z,10.00
2019-02-18T23:04:40.605Z,8.90
2019-02-18T23:07:17.389Z,9.50
2019-02-18T23:09:51.782Z,8.50
2019-02-18T23:12:20.196Z,7.77
2019-02-18T23:14:50.626Z,7.50
2019-02-18T23:17:20.393Z,7.80
2019-02-18T23:19:54.648Z,7.03
2019-02-18T23:22:23.121Z,8.63
2019-02-18T23:24:51.729Z,8.30
2019-02-18T23:27:23.069Z,8.07
2019-02-18T23:29:54.200Z,9.57
2019-02-18T23:32:22.620Z,8.47
2019-02-18T23:34:56.729Z,8.00
2019-02-18T23:37:27.935Z,8.23
2019-02-18T23:39:56.732Z,7.30
2019-02-18T23:42:28.094Z,7.23
2019-02-18T23:45:01.501Z,7.17
2019-02-18T23:47:27.412Z,7.43
2019-02-18T23:49:58.764Z,8.13
2019-02-18T23:52:35.842Z,8.83
2019-02-18T23:55:07.284Z,8.40
2019-02-18T23:57:57.712Z,8.77
